Kickapoo, Louisiana
Current Conditions -  °F | °C
As of 5:56 PM on Thursday 18 Dec 2014 (Local Time) from KSHV Reporting Station
Overcast Overcast  
Wind Chill: 51°   Ceiling: 1000
Heat Index: 51°   Visibility: 8mi
Dew Point: 47°   Wind: 6mph
Humidity: 86%   Direction: 70°ENE
Pressure: 30.13"   Gusts: NA
Location:  32.1925°N, 93.8233°W
Report Text: KSHV 182356Z 07005KT 8SM OVC010 11/08 A3013 RMK AO2 SLP202 T01060083 10111 20094 53006
Loading
Personal Weather Stations






























Interactive Weather Map New forecast layout! Learn more

10-Day Weather Forecast

Advertisements
Track Severe Weather on mobile